Time;durP1;ratioP1;P1;durP2;ratioP2;P2;SDS_P1;SDS_P2;PMS_P1;PMS_P2;Temp;Humidity;BMP_temperature;BMP_pressure;BME280_temperature;BME280_humidity;BME280_pressure;Samples;Min_cycle;Max_cycle;Signal;HPM_P1;HPM_P2
2021/11/29 00:01:43;;;;;;;1.15;0.70;;;6.20;70.50;;;;;;6199659;28;20058;-71
2021/11/29 00:04:45;;;;;;;0.32;0.20;;;6.20;70.60;;;;;;6184566;28;20049;-72
2021/11/29 00:07:46;;;;;;;0.98;0.30;;;6.30;70.60;;;;;;6199895;28;20356;-72
2021/11/29 00:10:47;;;;;;;0.40;0.25;;;6.20;70.40;;;;;;6182242;28;20035;-71
2021/11/29 00:13:49;;;;;;;0.10;0.08;;;6.20;70.60;;;;;;6199745;28;20038;-72
2021/11/29 00:16:50;;;;;;;0.00;0.00;;;6.20;70.60;;;;;;6182488;28;20367;-71
2021/11/29 00:19:51;;;;;;;0.20;0.20;;;6.20;70.50;;;;;;6159599;28;20062;-72
2021/11/29 00:22:52;;;;;;;0.47;0.20;;;6.20;70.70;;;;;;6199526;28;20038;-71
2021/11/29 00:25:53;;;;;;;0.00;0.00;;;6.10;70.60;;;;;;6163004;28;20035;-71
2021/11/29 00:28:55;;;;;;;0.85;0.30;;;6.10;70.80;;;;;;6173343;28;20038;-71
2021/11/29 00:31:56;;;;;;;0.20;0.10;;;6.00;70.90;;;;;;6190053;28;20490;-71
2021/11/29 00:34:57;;;;;;;0.30;0.20;;;6.00;71.00;;;;;;6206804;28;20117;-71
2021/11/29 00:37:58;;;;;;;0.10;0.10;;;6.00;71.00;;;;;;6203913;28;20363;-71
2021/11/29 00:40:59;;;;;;;0.15;0.13;;;6.00;71.10;;;;;;6203008;28;20046;-71
2021/11/29 00:44:00;;;;;;;0.22;0.22;;;6.00;71.10;;;;;;6204018;28;20053;-72
2021/11/29 00:47:02;;;;;;;0.10;0.10;;;6.10;71.10;;;;;;6186673;28;20084;-71
2021/11/29 00:50:05;;;;;;;0.57;0.52;;;6.10;71.20;;;;;;6185750;28;20074;-71
2021/11/29 00:53:10;;;;;;;0.40;0.38;;;6.10;71.00;;;;;;6203692;28;20105;-71
2021/11/29 00:56:11;;;;;;;0.00;0.00;;;6.00;71.10;;;;;;6203672;28;20058;-72
2021/11/29 00:59:12;;;;;;;0.00;0.00;;;6.00;71.00;;;;;;6168797;28;20045;-72
2021/11/29 01:02:14;;;;;;;0.00;0.00;;;5.90;71.20;;;;;;6184944;28;20038;-72
2021/11/29 01:05:15;;;;;;;0.30;0.30;;;6.00;71.30;;;;;;6185796;28;20100;-72
2021/11/29 01:08:17;;;;;;;0.20;0.20;;;5.90;71.30;;;;;;6186249;28;20434;-72
2021/11/29 01:11:19;;;;;;;0.57;0.22;;;5.90;71.40;;;;;;6201510;28;20065;-72
2021/11/29 01:14:20;;;;;;;0.47;0.25;;;5.90;71.50;;;;;;6193876;28;20038;-71
2021/11/29 01:17:21;;;;;;;0.75;0.50;;;5.90;71.60;;;;;;6186168;28;20042;-71
2021/11/29 01:20:23;;;;;;;1.50;0.82;;;5.90;71.60;;;;;;6202302;28;20431;-71
2021/11/29 01:23:24;;;;;;;0.75;0.75;;;5.90;71.60;;;;;;6185709;28;20396;-71
2021/11/29 01:26:25;;;;;;;0.98;0.30;;;5.90;71.60;;;;;;6203130;28;20425;-71
2021/11/29 01:29:26;;;;;;;0.30;0.30;;;5.90;71.60;;;;;;6186074;28;20038;-71
2021/11/29 01:32:27;;;;;;;0.15;0.15;;;5.90;71.50;;;;;;6173234;28;20383;-71
2021/11/29 01:35:28;;;;;;;0.88;0.50;;;5.90;71.40;;;;;;6185947;28;20125;-71
2021/11/29 01:38:30;;;;;;;0.80;0.65;;;5.90;71.40;;;;;;6185081;28;20034;-71
2021/11/29 01:41:31;;;;;;;0.63;0.50;;;5.90;71.60;;;;;;6185941;28;20121;-71
2021/11/29 01:44:32;;;;;;;0.25;0.22;;;5.90;71.50;;;;;;6185827;28;20444;-71
2021/11/29 01:47:33;;;;;;;0.70;0.70;;;5.90;71.40;;;;;;6185797;28;20026;-71
2021/11/29 01:50:36;;;;;;;1.05;0.70;;;5.90;71.50;;;;;;6202554;28;20065;-71
2021/11/29 01:53:37;;;;;;;0.85;0.85;;;5.90;71.50;;;;;;6202283;28;20046;-71
2021/11/29 01:56:39;;;;;;;0.60;0.40;;;6.00;71.50;;;;;;6201417;28;20069;-71
2021/11/29 01:59:40;;;;;;;0.43;0.38;;;6.00;71.50;;;;;;6184861;28;20357;-71
2021/11/29 02:02:42;;;;;;;0.40;0.40;;;6.00;71.40;;;;;;6201117;28;20038;-71
2021/11/29 02:05:43;;;;;;;5.30;2.70;;;5.90;71.40;;;;;;6202350;28;20082;-71
2021/11/29 02:08:44;;;;;;;4.10;1.60;;;6.00;71.40;;;;;;6184757;28;20042;-71
2021/11/29 02:11:46;;;;;;;1.23;1.10;;;6.00;71.40;;;;;;6184218;28;20039;-71
2021/11/29 02:14:48;;;;;;;2.92;2.30;;;6.00;71.40;;;;;;6202215;28;20065;-71
2021/11/29 02:17:49;;;;;;;1.63;0.75;;;6.00;71.40;;;;;;6184993;28;20046;-71
2021/11/29 02:21:07;;;;;;;0.47;0.47;;;6.00;71.40;;;;;;6184784;28;20034;-71
2021/11/29 02:24:08;;;;;;;0.38;0.38;;;6.00;71.40;;;;;;6199535;28;20097;-71
2021/11/29 02:27:09;;;;;;;0.35;0.35;;;6.00;71.50;;;;;;6200684;28;20431;-72
2021/11/29 02:30:13;;;;;;;0.98;0.60;;;6.00;71.50;;;;;;6199813;28;20505;-72
2021/11/29 02:33:14;;;;;;;2.45;1.13;;;6.00;71.60;;;;;;6183205;28;20486;-71
2021/11/29 02:36:15;;;;;;;1.88;1.23;;;6.00;71.50;;;;;;6166899;28;20523;-71
2021/11/29 02:39:17;;;;;;;2.95;1.58;;;6.00;71.50;;;;;;6199251;28;20053;-70
2021/11/29 02:42:18;;;;;;;2.72;1.40;;;6.00;71.50;;;;;;6200221;28;20133;-71
2021/11/29 02:45:20;;;;;;;2.75;1.30;;;6.00;71.50;;;;;;6199753;28;20038;-71
2021/11/29 02:48:38;;;;;;;0.60;0.60;;;6.00;71.40;;;;;;6198499;28;20129;-71
2021/11/29 02:51:41;;;;;;;;;;;6.00;71.60;;;;;;6199228;28;20074;-71
2021/11/29 02:54:44;;;;;;;1.77;0.60;;;5.90;71.60;;;;;;6182366;28;19941;-71
2021/11/29 02:57:45;;;;;;;2.75;0.65;;;5.90;71.60;;;;;;6193613;28;20037;-71
2021/11/29 03:00:46;;;;;;;0.43;0.43;;;5.90;71.60;;;;;;6162266;28;20038;-71
2021/11/29 03:03:52;;;;;;;3.83;0.68;;;5.90;71.70;;;;;;6166552;28;20096;-71
2021/11/29 03:06:54;;;;;;;4.97;0.73;;;5.90;71.70;;;;;;6182645;28;20034;-72
2021/11/29 03:09:55;;;;;;;1.05;0.82;;;5.90;71.60;;;;;;6199375;28;20069;-71
2021/11/29 03:12:56;;;;;;;1.20;0.70;;;5.80;71.60;;;;;;6171991;28;20053;-71
2021/11/29 03:15:57;;;;;;;1.25;0.52;;;5.80;71.70;;;;;;6169734;28;20038;-71
2021/11/29 03:18:59;;;;;;;0.52;0.32;;;5.80;72.50;;;;;;6198275;28;20043;-71
2021/11/29 03:22:01;;;;;;;3.75;0.80;;;5.80;71.60;;;;;;6181713;28;20057;-71
2021/11/29 03:25:04;;;;;;;0.93;0.82;;;5.70;71.80;;;;;;6197898;28;20188;-71
2021/11/29 03:28:05;;;;;;;1.05;0.60;;;5.70;71.90;;;;;;6181172;28;20034;-71
2021/11/29 03:31:08;;;;;;;2.80;0.70;;;5.70;72.10;;;;;;6198937;28;20042;-71
2021/11/29 03:34:12;;;;;;;0.30;0.30;;;5.70;72.10;;;;;;6188158;28;20038;-71
2021/11/29 03:37:13;;;;;;;0.45;0.45;;;5.80;72.10;;;;;;6182114;28;20471;-71
2021/11/29 03:40:14;;;;;;;0.28;0.28;;;5.80;72.10;;;;;;6181344;28;20034;-71
2021/11/29 03:43:15;;;;;;;1.88;0.50;;;5.80;72.10;;;;;;6182082;28;20040;-71
2021/11/29 03:46:16;;;;;;;0.38;0.38;;;5.80;72.00;;;;;;6180924;28;20359;-71
2021/11/29 03:49:19;;;;;;;0.10;0.10;;;5.80;72.10;;;;;;6192934;28;20125;-71
2021/11/29 03:52:20;;;;;;;1.08;0.57;;;5.80;72.00;;;;;;6180531;28;20050;-71
2021/11/29 03:55:21;;;;;;;0.80;0.75;;;5.80;72.00;;;;;;6198283;28;20077;-71
2021/11/29 03:58:22;;;;;;;0.47;0.30;;;5.80;72.00;;;;;;6165993;28;20031;-71
2021/11/29 04:01:24;;;;;;;0.30;0.20;;;5.80;72.00;;;;;;6197493;28;20073;-71
2021/11/29 04:04:25;;;;;;;0.40;0.40;;;5.80;71.90;;;;;;6180989;28;20416;-71
2021/11/29 04:07:26;;;;;;;0.52;0.52;;;5.80;71.80;;;;;;6181258;28;20037;-71
2021/11/29 04:10:27;;;;;;;0.22;0.22;;;5.70;71.70;;;;;;6198462;28;20368;-71
2021/11/29 04:13:28;;;;;;;0.77;0.50;;;5.60;71.80;;;;;;6198664;28;20030;-71
2021/11/29 04:16:29;;;;;;;0.57;0.25;;;5.60;72.10;;;;;;6178003;28;20181;-71
2021/11/29 04:19:34;;;;;;;0.30;0.30;;;5.60;72.30;;;;;;6198579;28;20034;-71
2021/11/29 04:22:36;;;;;;;0.30;0.30;;;5.60;72.20;;;;;;6182504;28;20104;-72
2021/11/29 04:26:01;;;;;;;0.20;0.20;;;5.50;72.30;;;;;;6199389;28;20069;-72
2021/11/29 04:29:05;;;;;;;0.30;0.30;;;5.50;72.40;;;;;;6178542;28;20040;-72
2021/11/29 04:32:07;;;;;;;0.50;0.50;;;5.50;72.70;;;;;;6200579;28;20112;-71
2021/11/29 04:35:08;;;;;;;0.43;0.30;;;5.50;72.70;;;;;;6173652;28;20276;-71
2021/11/29 04:38:09;;;;;;;0.38;0.30;;;5.50;72.70;;;;;;6196656;28;20034;-71
2021/11/29 04:41:11;;;;;;;4.85;0.95;;;5.50;72.60;;;;;;6196441;28;20360;-71
2021/11/29 04:44:12;;;;;;;0.20;0.10;;;5.50;72.60;;;;;;6180069;28;20114;-72
2021/11/29 04:47:13;;;;;;;0.40;0.40;;;5.50;72.60;;;;;;6196769;28;20041;-71
2021/11/29 04:50:14;;;;;;;0.45;0.17;;;5.50;72.60;;;;;;6179356;28;20117;-71
2021/11/29 04:53:15;;;;;;;0.73;0.45;;;5.50;72.70;;;;;;6195407;28;20113;-71
2021/11/29 04:56:18;;;;;;;0.17;0.17;;;5.50;72.80;;;;;;6176933;28;20463;-71
2021/11/29 04:59:19;;;;;;;0.03;0.03;;;5.60;72.80;;;;;;6179171;28;20129;-71
2021/11/29 05:02:21;;;;;;;0.20;0.20;;;5.60;72.70;;;;;;6195733;28;20129;-72
2021/11/29 05:05:22;;;;;;;0.40;0.38;;;5.60;72.70;;;;;;6195508;28;20081;-71
2021/11/29 05:08:24;;;;;;;0.00;0.00;;;5.60;72.80;;;;;;6178015;28;20077;-71
2021/11/29 05:11:26;;;;;;;0.00;0.00;;;5.60;72.70;;;;;;6189967;28;20054;-71
2021/11/29 05:14:28;;;;;;;0.10;0.10;;;5.60;72.70;;;;;;6182584;28;20116;-71
2021/11/29 05:17:30;;;;;;;0.00;0.00;;;5.60;72.60;;;;;;6187501;28;20337;-71
2021/11/29 05:20:32;;;;;;;0.25;0.25;;;5.60;72.60;;;;;;6200455;28;20034;-71
2021/11/29 05:23:33;;;;;;;3.13;0.22;;;5.60;72.50;;;;;;6183480;28;20041;-71
2021/11/29 05:26:34;;;;;;;0.10;0.10;;;5.60;72.40;;;;;;6182739;28;20022;-71
2021/11/29 05:29:35;;;;;;;0.38;0.38;;;5.60;72.40;;;;;;6182260;28;20034;-71
2021/11/29 05:32:37;;;;;;;0.10;0.10;;;5.60;72.30;;;;;;6202508;28;20034;-71
2021/11/29 05:35:38;;;;;;;0.50;0.50;;;5.60;72.30;;;;;;6190509;28;20038;-71
2021/11/29 05:38:39;;;;;;;0.20;0.20;;;5.60;72.30;;;;;;6182105;28;20427;-71
2021/11/29 05:41:41;;;;;;;0.57;0.50;;;5.60;72.20;;;;;;6183483;28;20041;-71
2021/11/29 05:44:42;;;;;;;0.00;0.00;;;5.60;72.10;;;;;;6200691;28;21015;-71
2021/11/29 05:47:43;;;;;;;0.00;0.00;;;5.60;72.10;;;;;;6176605;28;20113;-71
2021/11/29 05:50:44;;;;;;;0.35;0.30;;;5.60;72.00;;;;;;6200249;28;20038;-71
2021/11/29 05:53:47;;;;;;;0.10;0.10;;;5.60;72.10;;;;;;6200128;28;20030;-73
2021/11/29 05:56:48;;;;;;;0.50;0.32;;;5.50;71.90;;;;;;6199258;28;20046;-71
2021/11/29 05:59:50;;;;;;;0.08;0.08;;;5.50;72.00;;;;;;6186180;28;20057;-71
2021/11/29 06:02:51;;;;;;;0.50;0.47;;;5.50;72.10;;;;;;6203970;28;20116;-72
2021/11/29 06:05:52;;;;;;;0.20;0.20;;;5.50;72.30;;;;;;6199994;28;20045;-71
2021/11/29 06:08:53;;;;;;;0.13;0.13;;;5.40;72.30;;;;;;6199495;28;20097;-73
2021/11/29 06:11:54;;;;;;;2.08;0.55;;;5.50;72.50;;;;;;6199564;28;20341;-71
2021/11/29 06:14:55;;;;;;;0.22;0.22;;;5.50;72.60;;;;;;6197807;28;20039;-71
2021/11/29 06:17:56;;;;;;;0.17;0.17;;;5.50;72.60;;;;;;6199093;28;20116;-73
2021/11/29 06:20:57;;;;;;;1.67;0.52;;;5.50;72.50;;;;;;6181867;28;20038;-71
2021/11/29 06:23:59;;;;;;;0.10;0.10;;;5.40;72.40;;;;;;6164567;28;20090;-71
2021/11/29 06:27:00;;;;;;;0.10;0.10;;;5.40;72.50;;;;;;6197597;28;20053;-71
2021/11/29 06:30:01;;;;;;;0.38;0.38;;;5.40;72.60;;;;;;6182220;28;20039;-74
2021/11/29 06:33:03;;;;;;;0.45;0.32;;;5.40;72.60;;;;;;6207062;28;20121;-72
2021/11/29 06:36:06;;;;;;;0.40;0.40;;;5.40;72.80;;;;;;6198452;28;20489;-72
2021/11/29 06:39:07;;;;;;;0.20;0.20;;;5.50;72.70;;;;;;6197608;28;20030;-71
2021/11/29 06:42:09;;;;;;;0.68;0.55;;;5.50;72.60;;;;;;6197028;28;20034;-73
2021/11/29 06:45:10;;;;;;;2.38;0.35;;;5.50;72.70;;;;;;6180972;28;20100;-73
2021/11/29 06:48:11;;;;;;;0.20;0.20;;;5.50;72.60;;;;;;6180904;28;20030;-73
2021/11/29 06:51:16;;;;;;;0.32;0.30;;;5.40;72.60;;;;;;6195105;28;20046;-74
2021/11/29 06:54:17;;;;;;;0.13;0.13;;;5.40;72.80;;;;;;6197822;28;20410;-73
2021/11/29 06:57:19;;;;;;;0.65;0.30;;;5.50;72.80;;;;;;6176087;28;20053;-73
2021/11/29 07:00:24;;;;;;;0.30;0.30;;;5.50;72.60;;;;;;6197847;28;20341;-73
2021/11/29 07:03:25;;;;;;;0.20;0.20;;;5.50;72.60;;;;;;6176817;28;20030;-73
2021/11/29 07:06:26;;;;;;;0.38;0.38;;;5.40;72.60;;;;;;6180742;28;20030;-73
2021/11/29 07:09:27;;;;;;;0.30;0.30;;;5.50;72.70;;;;;;6167539;28;20038;-71
2021/11/29 07:12:29;;;;;;;1.30;0.75;;;5.50;72.60;;;;;;6180462;28;20447;-71
2021/11/29 07:15:30;;;;;;;2.83;0.68;;;5.50;72.50;;;;;;6181100;28;20359;-71
2021/11/29 07:18:31;;;;;;;0.63;0.40;;;5.60;72.50;;;;;;6197462;28;20030;-71
2021/11/29 07:21:32;;;;;;;0.20;0.20;;;5.60;72.30;;;;;;6180352;28;20439;-71
2021/11/29 07:24:34;;;;;;;0.47;0.38;;;5.60;72.20;;;;;;6179419;28;20038;-73
2021/11/29 07:27:35;;;;;;;0.63;0.40;;;5.60;72.10;;;;;;6164031;28;20515;-73
2021/11/29 07:30:36;;;;;;;0.65;0.60;;;5.60;72.10;;;;;;6180117;28;20043;-72
2021/11/29 07:33:38;;;;;;;0.40;0.40;;;5.60;71.90;;;;;;6197240;28;20084;-72
2021/11/29 07:36:39;;;;;;;7.03;3.67;;;5.60;71.90;;;;;;6180781;28;20054;-72
2021/11/29 07:39:39;;;;;;;0.75;0.75;;;5.60;72.00;;;;;;6180978;28;20080;-72
2021/11/29 07:42:41;;;;;;;0.43;0.43;;;5.60;72.10;;;;;;6198600;28;20041;-71
2021/11/29 07:45:43;;;;;;;1.08;0.63;;;5.60;71.90;;;;;;6165650;28;20474;-71
2021/11/29 07:48:44;;;;;;;1.55;0.65;;;5.60;71.90;;;;;;6197815;28;20035;-71
2021/11/29 07:51:45;;;;;;;0.65;0.60;;;5.60;71.80;;;;;;6197979;28;20050;-71
2021/11/29 07:54:47;;;;;;;0.70;0.70;;;5.60;71.90;;;;;;6179492;28;20027;-72
2021/11/29 07:57:48;;;;;;;0.38;0.38;;;5.60;71.80;;;;;;6196743;28;20022;-71
2021/11/29 08:00:50;;;;;;;0.68;0.38;;;5.60;71.60;;;;;;6181310;28;20042;-72
2021/11/29 08:03:51;;;;;;;0.98;0.80;;;5.70;71.50;;;;;;6152732;28;20089;-71
2021/11/29 08:06:52;;;;;;;0.80;0.80;;;5.60;71.50;;;;;;6195947;28;20046;-71
2021/11/29 08:09:54;;;;;;;1.00;0.90;;;5.70;71.50;;;;;;6180345;28;20096;-71
2021/11/29 08:12:55;;;;;;;1.30;0.88;;;5.70;71.50;;;;;;6178000;28;20090;-71
2021/11/29 08:15:56;;;;;;;2.10;1.10;;;5.70;71.30;;;;;;6180860;28;20062;-71
2021/11/29 08:18:57;;;;;;;1.35;0.80;;;5.70;71.10;;;;;;6179774;28;20109;-71
2021/11/29 08:21:58;;;;;;;4.50;1.13;;;5.70;71.20;;;;;;6180713;28;20042;-71
2021/11/29 08:24:59;;;;;;;1.55;1.00;;;5.70;71.00;;;;;;6195678;28;20140;-71
2021/11/29 08:28:01;;;;;;;1.75;1.20;;;5.80;70.90;;;;;;6180810;28;20108;-71
2021/11/29 08:31:02;;;;;;;2.20;1.70;;;5.80;70.80;;;;;;6197730;28;20089;-72
2021/11/29 08:34:03;;;;;;;2.70;1.13;;;5.90;70.60;;;;;;6200444;28;20043;-71
2021/11/29 08:37:07;;;;;;;2.58;1.23;;;5.90;70.30;;;;;;6181033;28;20046;-71
2021/11/29 08:40:09;;;;;;;1.65;1.15;;;5.90;70.00;;;;;;6164821;28;20470;-72
2021/11/29 08:43:16;;;;;;;3.30;1.50;;;5.90;69.90;;;;;;6199109;28;20364;-73
2021/11/29 08:46:17;;;;;;;2.80;1.50;;;6.00;69.80;;;;;;6198537;28;20200;-71
2021/11/29 08:49:20;;;;;;;2.17;1.42;;;6.00;69.50;;;;;;6183979;28;20046;-71
2021/11/29 08:52:23;;;;;;;2.30;1.23;;;6.00;69.10;;;;;;6200117;28;20034;-71
2021/11/29 08:55:25;;;;;;;2.28;1.30;;;6.00;68.90;;;;;;6169103;28;20144;-72
2021/11/29 08:58:26;;;;;;;2.92;1.88;;;6.10;68.30;;;;;;6203075;28;20418;-71
2021/11/29 09:01:27;;;;;;;2.58;1.50;;;6.10;68.20;;;;;;6202138;28;20030;-71
2021/11/29 09:04:29;;;;;;;3.90;2.05;;;6.10;67.80;;;;;;6162482;28;20030;-72
2021/11/29 09:07:30;;;;;;;1.92;1.20;;;6.10;67.60;;;;;;6201829;28;20113;-72
2021/11/29 09:10:32;;;;;;;1.45;1.20;;;6.10;67.50;;;;;;6202809;28;20054;-72
2021/11/29 09:13:34;;;;;;;4.72;2.03;;;6.10;67.30;;;;;;6186075;28;20038;-72
2021/11/29 09:16:35;;;;;;;4.00;2.53;;;6.20;67.10;;;;;;6185324;28;20038;-72
2021/11/29 09:19:37;;;;;;;2.78;1.25;;;6.20;67.00;;;;;;6185176;28;20038;-72
2021/11/29 09:22:43;;;;;;;1.80;1.38;;;6.20;66.70;;;;;;6185089;28;20031;-72
2021/11/29 09:25:44;;;;;;;2.33;1.75;;;6.20;66.50;;;;;;6187491;28;20034;-72
2021/11/29 09:28:46;;;;;;;5.32;1.65;;;6.20;66.10;;;;;;6184635;28;20069;-72
2021/11/29 09:31:47;;;;;;;3.47;1.95;;;6.30;66.20;;;;;;6203616;28;20030;-72
2021/11/29 09:34:49;;;;;;;3.90;2.17;;;6.30;66.20;;;;;;6184691;28;20049;-72
2021/11/29 09:37:50;;;;;;;4.47;2.83;;;6.40;66.10;;;;;;6168494;28;20057;-72
2021/11/29 09:40:52;;;;;;;2.55;1.90;;;6.40;65.80;;;;;;6200585;28;20305;-71
2021/11/29 09:43:54;;;;;;;3.97;2.03;;;6.50;65.80;;;;;;6201232;28;20369;-72
2021/11/29 09:46:55;;;;;;;4.93;2.25;;;6.50;65.50;;;;;;6184102;28;20031;-72
2021/11/29 09:49:57;;;;;;;3.72;2.17;;;6.50;65.60;;;;;;6201142;28;20419;-73
2021/11/29 09:52:58;;;;;;;2.78;1.70;;;6.60;65.50;;;;;;6184784;28;20533;-72
2021/11/29 09:56:02;;;;;;;4.07;2.53;;;6.60;65.20;;;;;;6201470;28;20130;-72
2021/11/29 09:59:04;;;;;;;5.07;2.13;;;6.70;65.20;;;;;;6201031;28;20038;-72
2021/11/29 10:02:12;;;;;;;4.10;2.45;;;6.70;65.30;;;;;;6203494;28;20352;-72
2021/11/29 10:05:14;;;;;;;4.30;2.10;;;6.80;66.10;;;;;;6201685;28;20113;-72
2021/11/29 10:08:20;;;;;;;4.68;2.35;;;6.90;65.00;;;;;;6184376;28;20122;-72
2021/11/29 10:11:25;;;;;;;10.43;3.22;;;7.00;64.80;;;;;;6183077;28;20434;-71
2021/11/29 10:14:26;;;;;;;3.55;2.20;;;7.00;64.40;;;;;;6184216;28;20105;-71
2021/11/29 10:17:27;;;;;;;4.40;2.03;;;7.00;64.50;;;;;;6201145;28;20440;-71
2021/11/29 10:20:30;;;;;;;7.20;2.05;;;7.00;64.20;;;;;;6167824;28;20026;-71
2021/11/29 10:23:38;;;;;;;4.72;2.72;;;7.00;64.20;;;;;;6201679;28;20062;-72
2021/11/29 10:26:41;;;;;;;5.35;2.45;;;6.90;64.40;;;;;;6183137;28;20133;-72
2021/11/29 10:29:54;;;;;;;7.50;2.55;;;7.00;64.60;;;;;;6183613;28;20132;-71
2021/11/29 10:32:56;;;;;;;5.05;1.88;;;6.90;64.80;;;;;;6199727;28;20407;-72
2021/11/29 10:36:08;;;;;;;3.25;2.65;;;6.90;64.80;;;;;;6200736;28;20053;-72
2021/11/29 10:39:17;;;;;;;4.05;2.80;;;6.90;65.00;;;;;;6166424;28;20030;-71
2021/11/29 10:42:23;;;;;;;7.55;3.42;;;7.00;65.10;;;;;;6183365;28;20031;-72
2021/11/29 10:45:25;;;;;;;5.07;3.00;;;7.00;65.00;;;;;;6183622;28;20030;-72
2021/11/29 10:48:27;;;;;;;5.28;2.67;;;7.00;64.90;;;;;;6198543;28;20034;-73
2021/11/29 10:51:28;;;;;;;5.03;2.58;;;7.00;65.00;;;;;;6178298;28;20038;-73
2021/11/29 10:54:31;;;;;;;4.53;1.90;;;7.10;65.20;;;;;;6197022;28;20030;-73
2021/11/29 10:57:32;;;;;;;3.58;1.85;;;7.20;65.20;;;;;;6168042;28;20464;-71
2021/11/29 11:00:42;;;;;;;8.10;2.60;;;7.20;64.90;;;;;;6182765;28;20750;-72
2021/11/29 11:03:56;;;;;;;2.70;2.00;;;7.20;65.10;;;;;;6199048;28;20139;-72
2021/11/29 11:07:00;;;;;;;3.05;1.55;;;7.10;65.20;;;;;;6177914;28;20416;-72
2021/11/29 11:10:03;;;;;;;2.78;1.48;;;7.00;65.40;;;;;;6197536;28;20436;-72
2021/11/29 11:13:05;;;;;;;4.38;1.80;;;6.90;65.80;;;;;;6196156;28;20395;-73
2021/11/29 11:16:06;;;;;;;1.30;0.82;;;6.80;66.30;;;;;;6164751;28;20042;-72
2021/11/29 11:19:26;;;;;;;1.23;1.08;;;6.70;66.60;;;;;;6198198;28;20112;-72
2021/11/29 11:22:30;;;;;;;2.15;1.30;;;6.60;67.10;;;;;;6177986;28;20062;-71
2021/11/29 11:25:42;;;;;;;1.77;1.35;;;6.60;67.50;;;;;;6161616;28;20086;-71
2021/11/29 11:28:43;;;;;;;2.13;1.25;;;6.60;67.60;;;;;;6207015;28;20049;-73
2021/11/29 11:31:44;;;;;;;3.63;1.58;;;6.70;67.70;;;;;;6180989;28;20038;-73
2021/11/29 11:34:49;;;;;;;1.40;1.05;;;6.70;67.70;;;;;;6182500;28;20338;-72
2021/11/29 11:37:57;;;;;;;1.30;0.98;;;6.70;67.80;;;;;;6196655;28;20034;-73
2021/11/29 11:40:59;;;;;;;3.55;1.67;;;6.70;67.80;;;;;;6173740;28;20470;-73
2021/11/29 11:44:04;;;;;;;1.27;0.82;;;6.70;67.70;;;;;;6161012;28;20157;-74
2021/11/29 11:47:07;;;;;;;2.00;1.10;;;6.70;67.70;;;;;;6165256;28;20034;-71
2021/11/29 11:50:10;;;;;;;2.50;1.30;;;6.70;67.60;;;;;;6149012;28;20413;-71
2021/11/29 11:53:12;;;;;;;1.20;0.80;;;6.70;67.60;;;;;;6166537;28;20543;-71
2021/11/29 11:56:13;;;;;;;1.88;1.30;;;6.70;67.40;;;;;;6161616;28;20467;-71
2021/11/29 11:59:17;;;;;;;6.00;1.50;;;6.70;67.20;;;;;;6178607;28;20030;-73
2021/11/29 12:02:26;;;;;;;11.98;1.35;;;6.80;67.20;;;;;;6212006;28;20108;-72
2021/11/29 12:05:29;;;;;;;2.10;1.52;;;6.90;66.80;;;;;;6166992;28;20121;-71
2021/11/29 12:08:41;;;;;;;1.88;1.15;;;6.90;66.30;;;;;;6196100;28;20494;-73
2021/11/29 12:12:05;;;;;;;2.15;1.55;;;6.90;66.10;;;;;;6179511;28;20027;-71
2021/11/29 12:15:17;;;;;;;4.10;1.58;;;7.00;66.00;;;;;;6179704;28;20466;-71
2021/11/29 12:18:33;;;;;;;4.05;1.77;;;7.00;65.90;;;;;;6180065;28;20046;-70
2021/11/29 12:21:39;;;;;;;2.40;1.58;;;7.00;65.70;;;;;;6196767;28;20034;-71
2021/11/29 12:24:43;;;;;;;2.20;1.40;;;7.10;65.40;;;;;;6183707;28;20038;-71
2021/11/29 12:27:48;;;;;;;9.40;2.35;;;7.10;65.40;;;;;;6202494;28;20038;-72
2021/11/29 12:30:49;;;;;;;4.07;2.03;;;7.20;65.20;;;;;;6185411;28;20046;-71
2021/11/29 12:33:50;;;;;;;3.13;1.67;;;7.20;64.70;;;;;;6204665;28;20053;-70
2021/11/29 12:36:57;;;;;;;2.88;1.70;;;7.30;64.70;;;;;;6201483;28;20112;-71
2021/11/29 12:40:11;;;;;;;2.60;1.52;;;7.30;64.30;;;;;;6183464;28;20054;-72
2021/11/29 12:43:31;;;;;;;3.53;2.10;;;7.40;64.10;;;;;;6202366;28;20108;-71
2021/11/29 12:46:32;;;;;;;6.55;2.42;;;7.40;63.70;;;;;;6202184;28;20363;-70
2021/11/29 12:49:39;;;;;;;12.73;2.30;;;7.50;63.90;;;;;;6184001;28;20036;-71
2021/11/29 12:52:45;;;;;;;2.85;1.73;;;7.60;63.90;;;;;;6161194;28;20042;-71
2021/11/29 12:55:54;;;;;;;4.65;2.33;;;7.70;63.60;;;;;;6201295;28;20034;-71
2021/11/29 12:58:57;;;;;;;2.75;1.23;;;7.70;63.10;;;;;;6149573;28;20035;-71
2021/11/29 13:01:58;;;;;;;12.02;1.98;;;7.70;63.10;;;;;;6179959;28;20042;-71
2021/11/29 13:04:59;;;;;;;2.22;1.50;;;7.70;63.10;;;;;;6178616;28;20480;-71
2021/11/29 13:08:05;;;;;;;2.53;1.52;;;7.70;63.10;;;;;;6176696;28;20041;-72
2021/11/29 13:11:42;;;;;;;2.28;1.50;;;7.80;62.70;;;;;;6176984;28;20057;-72
2021/11/29 13:14:42;;;;;;;3.05;2.03;;;7.70;62.60;;;;;;6173578;28;20046;-71
2021/11/29 13:17:42;;;;;;;2.90;1.33;;;7.70;62.30;;;;;;6172704;28;20097;-70
2021/11/29 13:20:46;;;;;;;4.53;1.38;;;7.70;62.40;;;;;;6170705;28;20126;-71
2021/11/29 13:23:50;;;;;;;5.10;1.65;;;7.60;62.50;;;;;;6173248;28;20042;-72
2021/11/29 13:26:54;;;;;;;1.80;1.25;;;7.60;62.40;;;;;;6189676;28;20152;-71
2021/11/29 13:30:03;;;;;;;2.42;1.20;;;7.50;62.50;;;;;;6189466;28;20046;-71
2021/11/29 13:33:04;;;;;;;2.95;1.92;;;7.50;62.60;;;;;;6180430;28;20129;-72
2021/11/29 13:36:08;;;;;;;2.55;1.60;;;7.50;62.50;;;;;;6172958;28;20049;-70
2021/11/29 13:39:23;;;;;;;1.73;1.45;;;7.50;62.60;;;;;;6171336;28;20472;-71
2021/11/29 13:42:37;;;;;;;2.30;1.42;;;7.50;62.70;;;;;;6190284;28;20093;-71
2021/11/29 13:45:38;;;;;;;3.63;2.38;;;7.40;62.60;;;;;;6175277;28;20038;-71
2021/11/29 13:48:40;;;;;;;1.85;1.65;;;7.30;62.80;;;;;;6174253;28;20038;-71
2021/11/29 13:51:42;;;;;;;5.35;1.83;;;7.30;62.90;;;;;;6190979;28;20058;-72
2021/11/29 13:55:03;;;;;;;2.10;1.70;;;7.30;63.10;;;;;;6179522;28;20045;-70
2021/11/29 13:58:15;;;;;;;2.78;1.70;;;7.30;63.00;;;;;;6182274;28;20049;-71
2021/11/29 14:01:18;;;;;;;2.25;1.30;;;7.30;62.90;;;;;;6197744;28;20100;-71
2021/11/29 14:04:21;;;;;;;3.15;1.70;;;7.40;62.80;;;;;;6181248;28;20045;-71
2021/11/29 14:07:22;;;;;;;8.20;1.88;;;7.50;62.50;;;;;;6184561;28;20033;-71
2021/11/29 14:10:47;;;;;;;2.55;1.50;;;7.60;62.10;;;;;;6181613;28;20049;-71
2021/11/29 14:13:54;;;;;;;4.65;1.83;;;7.70;61.30;;;;;;6163624;28;20121;-71
2021/11/29 14:16:56;;;;;;;1.73;1.33;;;7.80;61.00;;;;;;6197758;28;20121;-71
2021/11/29 14:19:56;;;;;;;3.53;1.55;;;7.80;60.40;;;;;;6195484;28;20058;-71
2021/11/29 14:22:58;;;;;;;2.42;1.58;;;7.90;60.20;;;;;;6164064;28;20035;-71
2021/11/29 14:25:59;;;;;;;4.55;1.48;;;7.90;59.90;;;;;;6197155;28;20085;-71
2021/11/29 14:29:13;;;;;;;4.32;1.98;;;7.90;59.80;;;;;;6179629;28;20054;-71
2021/11/29 14:32:20;;;;;;;2.45;1.50;;;7.90;59.90;;;;;;6200692;28;20069;-71
2021/11/29 14:35:29;;;;;;;2.25;1.48;;;7.90;60.00;;;;;;6169256;28;20054;-71
2021/11/29 14:38:47;;;;;;;3.60;1.33;;;7.90;59.80;;;;;;6164071;28;20038;-71
2021/11/29 14:41:57;;;;;;;2.03;1.70;;;7.80;59.40;;;;;;6151980;28;20154;-71
2021/11/29 14:45:21;;;;;;;3.20;1.80;;;7.70;59.50;;;;;;6195837;28;20042;-70
2021/11/29 14:48:22;;;;;;;2.47;1.55;;;7.60;59.40;;;;;;6178755;28;20294;-71
2021/11/29 14:51:30;;;;;;;3.95;1.88;;;7.60;59.50;;;;;;6179265;28;20053;-73
2021/11/29 14:54:31;;;;;;;1.88;1.23;;;7.60;59.30;;;;;;6178719;28;20030;-72
2021/11/29 14:58:01;;;;;;;3.35;1.58;;;7.60;59.40;;;;;;6178971;28;20049;-71
2021/11/29 15:01:03;;;;;;;5.65;2.03;;;7.60;59.60;;;;;;6104968;29;20043;-71
2021/11/29 15:04:04;;;;;;;3.05;1.63;;;7.60;59.70;;;;;;6094331;29;20042;-71
2021/11/29 15:07:10;;;;;;;2.88;1.73;;;7.60;59.60;;;;;;6099614;29;20358;-71
2021/11/29 15:10:38;;;;;;;2.60;1.70;;;7.60;59.70;;;;;;6104606;29;20349;-72
2021/11/29 15:13:42;;;;;;;2.30;1.33;;;7.60;59.70;;;;;;6078447;29;20071;-70
2021/11/29 15:16:46;;;;;;;2.10;1.40;;;7.60;59.80;;;;;;6106582;29;20402;-72
2021/11/29 15:19:49;;;;;;;4.25;2.03;;;7.60;60.60;;;;;;6083752;29;20067;-72
2021/11/29 15:22:52;;;;;;;3.72;1.40;;;7.60;59.60;;;;;;6093163;29;20489;-72
2021/11/29 15:25:54;;;;;;;3.28;1.55;;;7.60;59.60;;;;;;6099056;29;20362;-72
2021/11/29 15:28:55;;;;;;;3.28;1.77;;;7.60;59.50;;;;;;6111773;29;20123;-71
2021/11/29 15:31:56;;;;;;;3.22;1.70;;;7.60;59.60;;;;;;6120883;29;20088;-71
2021/11/29 15:35:02;;;;;;;5.55;1.48;;;7.50;59.50;;;;;;6098276;29;20043;-71
2021/11/29 15:38:14;;;;;;;4.43;1.40;;;7.40;59.60;;;;;;6142084;28;20085;-71
2021/11/29 15:41:17;;;;;;;3.00;1.45;;;7.40;59.70;;;;;;6175764;28;20037;-70
2021/11/29 15:44:29;;;;;;;5.28;1.60;;;7.40;59.50;;;;;;6191209;28;20077;-71
2021/11/29 15:47:30;;;;;;;4.18;2.17;;;7.40;59.60;;;;;;6185656;28;20069;-72
2021/11/29 15:50:32;;;;;;;2.30;1.35;;;7.30;59.60;;;;;;6177983;28;20074;-72
2021/11/29 15:53:39;;;;;;;2.58;1.35;;;7.30;59.70;;;;;;6178001;28;20069;-71
2021/11/29 15:56:43;;;;;;;2.42;1.30;;;7.30;59.60;;;;;;6178836;28;20537;-70
2021/11/29 15:59:44;;;;;;;3.17;1.40;;;7.30;59.70;;;;;;6162324;28;20053;-71
2021/11/29 16:02:46;;;;;;;2.17;1.45;;;7.20;59.50;;;;;;6207558;28;20464;-70
2021/11/29 16:05:49;;;;;;;3.53;1.70;;;7.20;59.40;;;;;;6159882;28;20062;-72
2021/11/29 16:08:53;;;;;;;2.25;1.27;;;7.10;59.40;;;;;;6196353;28;20054;-70